sensor_id;sensor_type;location;lat;lon;timestamp;P1;durP1;ratioP1;P2;durP2;ratioP2
37805;SDS011;25082;50.870;0.022;2023-09-08T00:02:22;6.25;;;4.50;;
37805;SDS011;25082;50.870;0.022;2023-09-08T00:04:51;5.47;;;4.20;;
37805;SDS011;25082;50.870;0.022;2023-09-08T00:07:17;5.47;;;4.28;;
37805;SDS011;25082;50.870;0.022;2023-09-08T00:09:43;6.00;;;4.70;;
37805;SDS011;25082;50.870;0.022;2023-09-08T00:12:08;5.82;;;4.45;;
37805;SDS011;25082;50.870;0.022;2023-09-08T00:14:34;8.68;;;4.22;;
37805;SDS011;25082;50.870;0.022;2023-09-08T00:17:00;5.53;;;4.32;;
37805;SDS011;25082;50.870;0.022;2023-09-08T00:19:26;5.55;;;4.28;;
37805;SDS011;25082;50.870;0.022;2023-09-08T00:21:51;6.07;;;4.40;;
37805;SDS011;25082;50.870;0.022;2023-09-08T00:24:17;7.05;;;4.65;;
37805;SDS011;25082;50.870;0.022;2023-09-08T00:26:43;6.20;;;4.78;;
37805;SDS011;25082;50.870;0.022;2023-09-08T00:29:09;4.85;;;3.85;;
37805;SDS011;25082;50.870;0.022;2023-09-08T00:31:35;6.20;;;4.60;;
37805;SDS011;25082;50.870;0.022;2023-09-08T00:34:01;6.07;;;4.88;;
37805;SDS011;25082;50.870;0.022;2023-09-08T00:36:26;8.63;;;4.90;;
37805;SDS011;25082;50.870;0.022;2023-09-08T00:38:52;6.22;;;4.32;;
37805;SDS011;25082;50.870;0.022;2023-09-08T00:41:18;5.43;;;4.18;;
37805;SDS011;25082;50.870;0.022;2023-09-08T00:43:44;5.28;;;4.10;;
37805;SDS011;25082;50.870;0.022;2023-09-08T00:46:09;6.22;;;4.18;;
37805;SDS011;25082;50.870;0.022;2023-09-08T00:48:36;4.53;;;3.60;;
37805;SDS011;25082;50.870;0.022;2023-09-08T00:51:03;5.28;;;3.83;;
37805;SDS011;25082;50.870;0.022;2023-09-08T00:53:30;7.18;;;4.35;;
37805;SDS011;25082;50.870;0.022;2023-09-08T00:55:56;5.50;;;4.15;;
37805;SDS011;25082;50.870;0.022;2023-09-08T00:58:24;5.18;;;4.32;;
37805;SDS011;25082;50.870;0.022;2023-09-08T01:00:50;7.25;;;4.63;;
37805;SDS011;25082;50.870;0.022;2023-09-08T01:03:15;5.93;;;4.57;;
37805;SDS011;25082;50.870;0.022;2023-09-08T01:05:41;5.45;;;4.10;;
37805;SDS011;25082;50.870;0.022;2023-09-08T01:08:08;6.75;;;4.63;;
37805;SDS011;25082;50.870;0.022;2023-09-08T01:10:35;5.00;;;4.18;;
37805;SDS011;25082;50.870;0.022;2023-09-08T01:13:02;6.10;;;4.28;;
37805;SDS011;25082;50.870;0.022;2023-09-08T01:15:28;5.88;;;4.10;;
37805;SDS011;25082;50.870;0.022;2023-09-08T01:17:54;5.60;;;4.00;;
37805;SDS011;25082;50.870;0.022;2023-09-08T01:20:24;4.43;;;4.03;;
37805;SDS011;25082;50.870;0.022;2023-09-08T01:25:50;5.82;;;4.43;;
37805;SDS011;25082;50.870;0.022;2023-09-08T01:28:21;5.93;;;4.30;;
37805;SDS011;25082;50.870;0.022;2023-09-08T01:30:48;5.25;;;4.03;;
37805;SDS011;25082;50.870;0.022;2023-09-08T01:33:14;6.05;;;4.38;;
37805;SDS011;25082;50.870;0.022;2023-09-08T01:35:41;4.53;;;4.13;;
37805;SDS011;25082;50.870;0.022;2023-09-08T01:38:06;5.13;;;4.22;;
37805;SDS011;25082;50.870;0.022;2023-09-08T01:40:32;5.50;;;4.50;;
37805;SDS011;25082;50.870;0.022;2023-09-08T01:42:58;5.93;;;4.47;;
37805;SDS011;25082;50.870;0.022;2023-09-08T01:45:24;6.10;;;4.13;;
37805;SDS011;25082;50.870;0.022;2023-09-08T01:47:49;6.10;;;4.22;;
37805;SDS011;25082;50.870;0.022;2023-09-08T01:50:15;6.45;;;3.97;;
37805;SDS011;25082;50.870;0.022;2023-09-08T01:52:46;5.13;;;4.37;;
37805;SDS011;25082;50.870;0.022;2023-09-08T01:55:12;6.15;;;4.20;;
37805;SDS011;25082;50.870;0.022;2023-09-08T01:57:38;5.38;;;4.30;;
37805;SDS011;25082;50.870;0.022;2023-09-08T02:00:03;5.28;;;4.18;;
37805;SDS011;25082;50.870;0.022;2023-09-08T02:02:30;6.45;;;4.78;;
37805;SDS011;25082;50.870;0.022;2023-09-08T02:04:56;6.60;;;4.88;;
37805;SDS011;25082;50.870;0.022;2023-09-08T02:07:21;6.60;;;4.82;;
37805;SDS011;25082;50.870;0.022;2023-09-08T02:09:47;5.30;;;4.13;;
37805;SDS011;25082;50.870;0.022;2023-09-08T02:12:13;4.90;;;3.85;;
37805;SDS011;25082;50.870;0.022;2023-09-08T02:14:39;4.53;;;3.88;;
37805;SDS011;25082;50.870;0.022;2023-09-08T02:17:04;6.25;;;4.85;;
37805;SDS011;25082;50.870;0.022;2023-09-08T02:19:31;4.70;;;3.75;;
37805;SDS011;25082;50.870;0.022;2023-09-08T02:21:57;5.22;;;4.22;;
37805;SDS011;25082;50.870;0.022;2023-09-08T02:24:22;5.80;;;4.65;;
37805;SDS011;25082;50.870;0.022;2023-09-08T02:26:48;5.85;;;4.82;;
37805;SDS011;25082;50.870;0.022;2023-09-08T02:29:14;5.55;;;4.28;;
37805;SDS011;25082;50.870;0.022;2023-09-08T02:31:40;7.35;;;4.72;;
37805;SDS011;25082;50.870;0.022;2023-09-08T02:34:06;6.78;;;4.47;;
37805;SDS011;25082;50.870;0.022;2023-09-08T02:36:32;7.18;;;4.72;;
37805;SDS011;25082;50.870;0.022;2023-09-08T02:38:57;5.03;;;4.10;;
37805;SDS011;25082;50.870;0.022;2023-09-08T02:41:23;6.90;;;4.88;;
37805;SDS011;25082;50.870;0.022;2023-09-08T02:43:49;5.20;;;4.32;;
37805;SDS011;25082;50.870;0.022;2023-09-08T02:46:15;5.70;;;4.38;;
37805;SDS011;25082;50.870;0.022;2023-09-08T02:48:41;8.00;;;5.20;;
37805;SDS011;25082;50.870;0.022;2023-09-08T02:51:07;6.20;;;4.20;;
37805;SDS011;25082;50.870;0.022;2023-09-08T02:53:32;5.78;;;4.47;;
37805;SDS011;25082;50.870;0.022;2023-09-08T02:55:58;4.97;;;4.10;;
37805;SDS011;25082;50.870;0.022;2023-09-08T02:58:25;6.38;;;4.35;;
37805;SDS011;25082;50.870;0.022;2023-09-08T03:00:51;6.43;;;4.30;;
37805;SDS011;25082;50.870;0.022;2023-09-08T03:03:18;5.18;;;4.30;;
37805;SDS011;25082;50.870;0.022;2023-09-08T03:05:44;5.13;;;3.97;;
37805;SDS011;25082;50.870;0.022;2023-09-08T03:08:10;5.50;;;4.20;;
37805;SDS011;25082;50.870;0.022;2023-09-08T03:10:36;5.50;;;4.15;;
37805;SDS011;25082;50.870;0.022;2023-09-08T03:13:02;5.40;;;4.03;;
37805;SDS011;25082;50.870;0.022;2023-09-08T03:15:28;5.60;;;4.30;;
37805;SDS011;25082;50.870;0.022;2023-09-08T03:17:54;7.40;;;5.22;;
37805;SDS011;25082;50.870;0.022;2023-09-08T03:20:20;8.05;;;4.82;;
37805;SDS011;25082;50.870;0.022;2023-09-08T03:22:46;7.90;;;4.78;;
37805;SDS011;25082;50.870;0.022;2023-09-08T03:25:15;4.75;;;4.18;;
37805;SDS011;25082;50.870;0.022;2023-09-08T03:27:40;5.82;;;4.28;;
37805;SDS011;25082;50.870;0.022;2023-09-08T03:30:07;5.57;;;4.50;;
37805;SDS011;25082;50.870;0.022;2023-09-08T03:32:33;6.57;;;4.95;;
37805;SDS011;25082;50.870;0.022;2023-09-08T03:34:59;5.93;;;4.55;;
37805;SDS011;25082;50.870;0.022;2023-09-08T03:37:25;6.75;;;4.45;;
37805;SDS011;25082;50.870;0.022;2023-09-08T03:39:53;5.28;;;3.72;;
37805;SDS011;25082;50.870;0.022;2023-09-08T03:42:19;5.95;;;4.47;;
37805;SDS011;25082;50.870;0.022;2023-09-08T03:44:45;5.25;;;4.38;;
37805;SDS011;25082;50.870;0.022;2023-09-08T03:47:10;6.13;;;4.60;;
37805;SDS011;25082;50.870;0.022;2023-09-08T03:49:36;6.18;;;4.13;;
37805;SDS011;25082;50.870;0.022;2023-09-08T03:52:02;5.38;;;4.28;;
37805;SDS011;25082;50.870;0.022;2023-09-08T03:54:28;6.20;;;4.25;;
37805;SDS011;25082;50.870;0.022;2023-09-08T03:56:54;5.68;;;4.50;;
37805;SDS011;25082;50.870;0.022;2023-09-08T03:59:19;5.50;;;4.38;;
37805;SDS011;25082;50.870;0.022;2023-09-08T04:01:45;6.05;;;4.63;;
37805;SDS011;25082;50.870;0.022;2023-09-08T04:04:11;5.80;;;4.72;;
37805;SDS011;25082;50.870;0.022;2023-09-08T04:06:36;4.97;;;4.13;;
37805;SDS011;25082;50.870;0.022;2023-09-08T04:09:02;5.07;;;4.13;;
37805;SDS011;25082;50.870;0.022;2023-09-08T04:11:28;6.40;;;4.68;;
37805;SDS011;25082;50.870;0.022;2023-09-08T04:13:54;7.28;;;4.85;;
37805;SDS011;25082;50.870;0.022;2023-09-08T04:16:19;5.68;;;4.30;;
37805;SDS011;25082;50.870;0.022;2023-09-08T04:18:45;5.00;;;4.35;;
37805;SDS011;25082;50.870;0.022;2023-09-08T04:21:11;5.13;;;4.60;;
37805;SDS011;25082;50.870;0.022;2023-09-08T04:23:37;4.35;;;3.95;;
37805;SDS011;25082;50.870;0.022;2023-09-08T04:26:02;5.72;;;4.30;;
37805;SDS011;25082;50.870;0.022;2023-09-08T04:28:28;4.78;;;4.13;;
37805;SDS011;25082;50.870;0.022;2023-09-08T04:30:54;5.45;;;4.60;;
37805;SDS011;25082;50.870;0.022;2023-09-08T04:33:20;7.53;;;4.70;;
37805;SDS011;25082;50.870;0.022;2023-09-08T04:35:45;5.18;;;4.30;;
37805;SDS011;25082;50.870;0.022;2023-09-08T04:38:11;5.72;;;4.90;;
37805;SDS011;25082;50.870;0.022;2023-09-08T04:40:40;5.38;;;3.92;;
37805;SDS011;25082;50.870;0.022;2023-09-08T04:43:07;4.50;;;3.88;;
37805;SDS011;25082;50.870;0.022;2023-09-08T04:45:32;5.63;;;4.88;;
37805;SDS011;25082;50.870;0.022;2023-09-08T04:47:58;5.70;;;4.65;;
37805;SDS011;25082;50.870;0.022;2023-09-08T04:50:24;5.15;;;4.47;;
37805;SDS011;25082;50.870;0.022;2023-09-08T04:52:49;5.03;;;3.95;;
37805;SDS011;25082;50.870;0.022;2023-09-08T04:55:16;5.95;;;4.15;;
37805;SDS011;25082;50.870;0.022;2023-09-08T04:57:42;5.03;;;4.30;;
37805;SDS011;25082;50.870;0.022;2023-09-08T05:00:08;5.43;;;4.18;;
37805;SDS011;25082;50.870;0.022;2023-09-08T05:02:34;5.50;;;4.13;;
37805;SDS011;25082;50.870;0.022;2023-09-08T05:05:00;6.07;;;4.38;;
37805;SDS011;25082;50.870;0.022;2023-09-08T05:07:26;4.72;;;4.18;;
37805;SDS011;25082;50.870;0.022;2023-09-08T05:09:51;6.18;;;4.80;;
37805;SDS011;25082;50.870;0.022;2023-09-08T05:12:17;5.63;;;4.32;;
37805;SDS011;25082;50.870;0.022;2023-09-08T05:14:43;5.57;;;4.50;;
37805;SDS011;25082;50.870;0.022;2023-09-08T05:17:08;5.72;;;4.22;;
37805;SDS011;25082;50.870;0.022;2023-09-08T05:19:34;4.97;;;3.92;;
37805;SDS011;25082;50.870;0.022;2023-09-08T05:22:00;5.93;;;4.50;;
37805;SDS011;25082;50.870;0.022;2023-09-08T05:24:26;5.57;;;4.55;;
37805;SDS011;25082;50.870;0.022;2023-09-08T05:26:52;5.18;;;4.47;;
37805;SDS011;25082;50.870;0.022;2023-09-08T05:29:18;5.97;;;4.00;;
37805;SDS011;25082;50.870;0.022;2023-09-08T05:31:44;5.35;;;4.20;;
37805;SDS011;25082;50.870;0.022;2023-09-08T05:34:10;7.82;;;4.60;;
37805;SDS011;25082;50.870;0.022;2023-09-08T05:36:35;5.28;;;4.38;;
37805;SDS011;25082;50.870;0.022;2023-09-08T05:39:03;5.43;;;4.25;;
37805;SDS011;25082;50.870;0.022;2023-09-08T05:41:30;4.82;;;4.22;;
37805;SDS011;25082;50.870;0.022;2023-09-08T05:43:57;6.35;;;4.70;;
37805;SDS011;25082;50.870;0.022;2023-09-08T05:46:23;6.47;;;4.28;;
37805;SDS011;25082;50.870;0.022;2023-09-08T05:48:49;6.35;;;4.70;;
37805;SDS011;25082;50.870;0.022;2023-09-08T05:51:15;5.10;;;4.10;;
37805;SDS011;25082;50.870;0.022;2023-09-08T05:53:41;6.75;;;4.82;;
37805;SDS011;25082;50.870;0.022;2023-09-08T05:56:06;6.05;;;4.32;;
37805;SDS011;25082;50.870;0.022;2023-09-08T05:58:33;5.68;;;4.32;;
37805;SDS011;25082;50.870;0.022;2023-09-08T06:01:00;6.38;;;4.40;;
37805;SDS011;25082;50.870;0.022;2023-09-08T06:03:27;6.25;;;4.50;;
37805;SDS011;25082;50.870;0.022;2023-09-08T06:05:53;4.97;;;4.47;;
37805;SDS011;25082;50.870;0.022;2023-09-08T06:08:18;5.63;;;4.43;;
37805;SDS011;25082;50.870;0.022;2023-09-08T06:10:44;5.90;;;4.20;;
37805;SDS011;25082;50.870;0.022;2023-09-08T06:13:10;6.20;;;4.43;;
37805;SDS011;25082;50.870;0.022;2023-09-08T06:15:36;6.30;;;4.60;;
37805;SDS011;25082;50.870;0.022;2023-09-08T06:18:02;6.05;;;4.38;;
37805;SDS011;25082;50.870;0.022;2023-09-08T06:20:28;5.68;;;4.50;;
37805;SDS011;25082;50.870;0.022;2023-09-08T06:22:54;6.10;;;4.70;;
37805;SDS011;25082;50.870;0.022;2023-09-08T06:25:20;6.22;;;4.85;;
37805;SDS011;25082;50.870;0.022;2023-09-08T06:27:46;7.78;;;4.75;;
37805;SDS011;25082;50.870;0.022;2023-09-08T06:30:12;6.38;;;4.63;;
37805;SDS011;25082;50.870;0.022;2023-09-08T06:32:39;5.15;;;3.92;;
37805;SDS011;25082;50.870;0.022;2023-09-08T06:35:05;4.85;;;4.20;;
37805;SDS011;25082;50.870;0.022;2023-09-08T06:37:40;6.45;;;4.40;;
37805;SDS011;25082;50.870;0.022;2023-09-08T06:40:06;6.63;;;4.78;;
37805;SDS011;25082;50.870;0.022;2023-09-08T06:42:33;5.93;;;4.75;;
37805;SDS011;25082;50.870;0.022;2023-09-08T06:44:59;4.32;;;3.83;;
37805;SDS011;25082;50.870;0.022;2023-09-08T06:47:25;5.63;;;4.68;;
37805;SDS011;25082;50.870;0.022;2023-09-08T06:49:51;5.93;;;4.95;;
37805;SDS011;25082;50.870;0.022;2023-09-08T06:52:20;5.90;;;4.32;;
37805;SDS011;25082;50.870;0.022;2023-09-08T06:54:45;5.68;;;4.25;;
37805;SDS011;25082;50.870;0.022;2023-09-08T06:57:17;7.30;;;4.47;;
37805;SDS011;25082;50.870;0.022;2023-09-08T06:59:44;5.78;;;4.00;;
37805;SDS011;25082;50.870;0.022;2023-09-08T07:02:11;5.30;;;4.53;;
37805;SDS011;25082;50.870;0.022;2023-09-08T07:04:36;5.00;;;4.10;;
37805;SDS011;25082;50.870;0.022;2023-09-08T07:07:02;6.15;;;4.78;;
37805;SDS011;25082;50.870;0.022;2023-09-08T07:09:32;5.72;;;4.70;;
37805;SDS011;25082;50.870;0.022;2023-09-08T07:12:04;5.55;;;3.95;;
37805;SDS011;25082;50.870;0.022;2023-09-08T07:14:31;5.85;;;4.40;;
37805;SDS011;25082;50.870;0.022;2023-09-08T07:16:57;7.20;;;4.55;;
37805;SDS011;25082;50.870;0.022;2023-09-08T07:19:23;4.85;;;4.15;;
37805;SDS011;25082;50.870;0.022;2023-09-08T07:21:50;6.55;;;4.97;;
37805;SDS011;25082;50.870;0.022;2023-09-08T07:24:16;6.30;;;4.78;;
37805;SDS011;25082;50.870;0.022;2023-09-08T07:26:41;6.03;;;4.43;;
37805;SDS011;25082;50.870;0.022;2023-09-08T07:29:07;5.90;;;4.30;;
37805;SDS011;25082;50.870;0.022;2023-09-08T07:31:33;6.03;;;4.55;;
37805;SDS011;25082;50.870;0.022;2023-09-08T07:33:59;5.40;;;4.45;;
37805;SDS011;25082;50.870;0.022;2023-09-08T07:36:25;9.75;;;4.45;;
37805;SDS011;25082;50.870;0.022;2023-09-08T07:38:51;5.95;;;4.53;;
37805;SDS011;25082;50.870;0.022;2023-09-08T07:41:16;5.25;;;4.20;;
37805;SDS011;25082;50.870;0.022;2023-09-08T07:43:42;5.85;;;4.00;;
37805;SDS011;25082;50.870;0.022;2023-09-08T07:46:10;4.65;;;3.83;;
37805;SDS011;25082;50.870;0.022;2023-09-08T07:48:36;5.75;;;4.15;;
37805;SDS011;25082;50.870;0.022;2023-09-08T07:51:02;6.93;;;4.50;;
37805;SDS011;25082;50.870;0.022;2023-09-08T07:53:28;7.35;;;4.57;;
37805;SDS011;25082;50.870;0.022;2023-09-08T07:55:54;6.45;;;4.47;;
37805;SDS011;25082;50.870;0.022;2023-09-08T07:58:21;6.90;;;4.60;;
37805;SDS011;25082;50.870;0.022;2023-09-08T08:00:47;5.00;;;4.00;;
37805;SDS011;25082;50.870;0.022;2023-09-08T08:03:13;6.22;;;4.65;;
37805;SDS011;25082;50.870;0.022;2023-09-08T08:05:39;6.05;;;4.32;;
37805;SDS011;25082;50.870;0.022;2023-09-08T08:08:05;5.82;;;4.32;;
37805;SDS011;25082;50.870;0.022;2023-09-08T08:10:32;5.03;;;4.47;;
37805;SDS011;25082;50.870;0.022;2023-09-08T08:12:57;5.88;;;4.38;;
37805;SDS011;25082;50.870;0.022;2023-09-08T08:15:33;5.63;;;4.78;;
37805;SDS011;25082;50.870;0.022;2023-09-08T08:18:06;6.55;;;4.53;;
37805;SDS011;25082;50.870;0.022;2023-09-08T08:20:34;6.00;;;4.32;;
37805;SDS011;25082;50.870;0.022;2023-09-08T08:23:04;5.60;;;4.70;;
37805;SDS011;25082;50.870;0.022;2023-09-08T08:25:30;6.07;;;4.43;;
37805;SDS011;25082;50.870;0.022;2023-09-08T08:27:57;6.18;;;4.22;;
37805;SDS011;25082;50.870;0.022;2023-09-08T08:30:24;7.88;;;4.55;;
37805;SDS011;25082;50.870;0.022;2023-09-08T08:32:50;5.78;;;4.20;;
37805;SDS011;25082;50.870;0.022;2023-09-08T08:35:18;5.78;;;4.07;;
37805;SDS011;25082;50.870;0.022;2023-09-08T08:37:46;6.20;;;4.50;;
37805;SDS011;25082;50.870;0.022;2023-09-08T08:40:12;5.47;;;4.43;;
37805;SDS011;25082;50.870;0.022;2023-09-08T08:42:39;5.53;;;4.20;;
37805;SDS011;25082;50.870;0.022;2023-09-08T08:45:05;6.72;;;4.38;;
37805;SDS011;25082;50.870;0.022;2023-09-08T08:47:32;6.07;;;4.13;;
37805;SDS011;25082;50.870;0.022;2023-09-08T08:49:59;5.70;;;4.57;;
37805;SDS011;25082;50.870;0.022;2023-09-08T08:52:25;4.57;;;3.75;;
37805;SDS011;25082;50.870;0.022;2023-09-08T08:54:51;6.40;;;4.22;;
37805;SDS011;25082;50.870;0.022;2023-09-08T08:57:18;5.35;;;4.28;;
37805;SDS011;25082;50.870;0.022;2023-09-08T08:59:44;6.97;;;5.57;;
37805;SDS011;25082;50.870;0.022;2023-09-08T09:02:11;9.02;;;6.07;;
37805;SDS011;25082;50.870;0.022;2023-09-08T09:04:39;6.70;;;5.32;;
37805;SDS011;25082;50.870;0.022;2023-09-08T09:07:06;11.43;;;6.53;;
37805;SDS011;25082;50.870;0.022;2023-09-08T09:09:32;13.43;;;5.13;;
37805;SDS011;25082;50.870;0.022;2023-09-08T09:11:59;16.08;;;6.05;;
37805;SDS011;25082;50.870;0.022;2023-09-08T09:14:27;8.25;;;6.18;;
37805;SDS011;25082;50.870;0.022;2023-09-08T09:16:56;7.65;;;5.70;;
37805;SDS011;25082;50.870;0.022;2023-09-08T09:19:22;8.35;;;5.70;;
37805;SDS011;25082;50.870;0.022;2023-09-08T09:21:57;8.40;;;5.68;;
37805;SDS011;25082;50.870;0.022;2023-09-08T09:24:31;10.07;;;6.78;;
37805;SDS011;25082;50.870;0.022;2023-09-08T09:27:01;9.77;;;5.97;;
37805;SDS011;25082;50.870;0.022;2023-09-08T09:29:29;10.52;;;6.20;;
37805;SDS011;25082;50.870;0.022;2023-09-08T09:31:56;16.35;;;6.85;;
37805;SDS011;25082;50.870;0.022;2023-09-08T09:34:23;7.70;;;5.65;;
37805;SDS011;25082;50.870;0.022;2023-09-08T09:36:49;8.45;;;5.78;;
37805;SDS011;25082;50.870;0.022;2023-09-08T09:39:22;7.78;;;5.80;;
37805;SDS011;25082;50.870;0.022;2023-09-08T09:41:49;8.20;;;5.70;;
37805;SDS011;25082;50.870;0.022;2023-09-08T09:44:19;6.78;;;5.15;;
37805;SDS011;25082;50.870;0.022;2023-09-08T09:46:46;8.40;;;6.25;;
37805;SDS011;25082;50.870;0.022;2023-09-08T09:49:15;9.07;;;5.97;;
37805;SDS011;25082;50.870;0.022;2023-09-08T09:51:45;6.93;;;5.68;;
37805;SDS011;25082;50.870;0.022;2023-09-08T09:54:12;8.63;;;5.32;;
37805;SDS011;25082;50.870;0.022;2023-09-08T09:56:39;8.85;;;5.93;;
37805;SDS011;25082;50.870;0.022;2023-09-08T09:59:09;10.30;;;5.18;;
37805;SDS011;25082;50.870;0.022;2023-09-08T10:01:37;10.98;;;6.00;;
37805;SDS011;25082;50.870;0.022;2023-09-08T10:04:04;13.52;;;6.35;;
37805;SDS011;25082;50.870;0.022;2023-09-08T10:06:34;11.25;;;5.50;;
37805;SDS011;25082;50.870;0.022;2023-09-08T10:09:02;9.82;;;5.03;;
37805;SDS011;25082;50.870;0.022;2023-09-08T10:11:34;8.57;;;5.40;;
37805;SDS011;25082;50.870;0.022;2023-09-08T10:14:03;11.25;;;4.28;;
37805;SDS011;25082;50.870;0.022;2023-09-08T10:16:34;8.98;;;5.18;;
37805;SDS011;25082;50.870;0.022;2023-09-08T10:19:00;9.52;;;4.70;;
37805;SDS011;25082;50.870;0.022;2023-09-08T10:21:28;6.35;;;4.32;;
37805;SDS011;25082;50.870;0.022;2023-09-08T10:24:14;8.40;;;4.80;;
37805;SDS011;25082;50.870;0.022;2023-09-08T10:26:43;7.60;;;4.80;;
37805;SDS011;25082;50.870;0.022;2023-09-08T10:29:14;6.95;;;5.03;;
37805;SDS011;25082;50.870;0.022;2023-09-08T10:31:40;8.05;;;4.93;;
37805;SDS011;25082;50.870;0.022;2023-09-08T10:34:08;6.75;;;4.70;;
37805;SDS011;25082;50.870;0.022;2023-09-08T10:36:34;6.43;;;4.75;;
37805;SDS011;25082;50.870;0.022;2023-09-08T10:39:46;5.95;;;4.63;;
37805;SDS011;25082;50.870;0.022;2023-09-08T10:47:19;8.40;;;4.57;;
37805;SDS011;25082;50.870;0.022;2023-09-08T10:49:52;7.07;;;5.18;;
37805;SDS011;25082;50.870;0.022;2023-09-08T10:52:22;8.98;;;4.72;;
37805;SDS011;25082;50.870;0.022;2023-09-08T10:54:50;7.80;;;5.50;;
37805;SDS011;25082;50.870;0.022;2023-09-08T10:57:18;9.38;;;4.80;;
37805;SDS011;25082;50.870;0.022;2023-09-08T10:59:55;7.90;;;5.40;;
37805;SDS011;25082;50.870;0.022;2023-09-08T11:05:01;5.97;;;4.30;;
37805;SDS011;25082;50.870;0.022;2023-09-08T11:07:30;8.80;;;4.50;;
37805;SDS011;25082;50.870;0.022;2023-09-08T11:09:57;7.22;;;4.85;;
37805;SDS011;25082;50.870;0.022;2023-09-08T11:12:25;6.50;;;4.40;;
37805;SDS011;25082;50.870;0.022;2023-09-08T11:14:54;6.95;;;4.50;;
37805;SDS011;25082;50.870;0.022;2023-09-08T11:17:20;8.88;;;5.03;;
37805;SDS011;25082;50.870;0.022;2023-09-08T11:19:51;9.07;;;4.55;;
37805;SDS011;25082;50.870;0.022;2023-09-08T11:22:17;20.02;;;5.40;;
37805;SDS011;25082;50.870;0.022;2023-09-08T11:24:43;5.65;;;4.88;;
37805;SDS011;25082;50.870;0.022;2023-09-08T11:27:13;6.40;;;4.75;;
37805;SDS011;25082;50.870;0.022;2023-09-08T11:29:39;7.55;;;4.78;;
37805;SDS011;25082;50.870;0.022;2023-09-08T11:32:06;6.82;;;4.85;;
37805;SDS011;25082;50.870;0.022;2023-09-08T11:34:34;6.60;;;4.63;;
37805;SDS011;25082;50.870;0.022;2023-09-08T11:37:00;5.82;;;4.97;;
37805;SDS011;25082;50.870;0.022;2023-09-08T11:39:30;8.00;;;5.22;;
37805;SDS011;25082;50.870;0.022;2023-09-08T11:41:56;6.22;;;4.50;;
37805;SDS011;25082;50.870;0.022;2023-09-08T11:44:25;6.50;;;4.82;;
37805;SDS011;25082;50.870;0.022;2023-09-08T11:46:51;6.50;;;5.50;;
37805;SDS011;25082;50.870;0.022;2023-09-08T11:49:18;7.35;;;4.55;;
37805;SDS011;25082;50.870;0.022;2023-09-08T11:51:45;7.60;;;5.53;;
37805;SDS011;25082;50.870;0.022;2023-09-08T11:54:11;6.45;;;4.72;;
37805;SDS011;25082;50.870;0.022;2023-09-08T11:56:37;7.38;;;4.95;;
37805;SDS011;25082;50.870;0.022;2023-09-08T11:59:03;6.43;;;5.22;;
37805;SDS011;25082;50.870;0.022;2023-09-08T12:01:29;6.07;;;4.80;;
37805;SDS011;25082;50.870;0.022;2023-09-08T12:03:55;6.85;;;5.22;;
37805;SDS011;25082;50.870;0.022;2023-09-08T12:06:23;5.95;;;4.88;;
37805;SDS011;25082;50.870;0.022;2023-09-08T12:08:51;10.32;;;5.43;;
37805;SDS011;25082;50.870;0.022;2023-09-08T12:11:17;7.95;;;5.35;;
37805;SDS011;25082;50.870;0.022;2023-09-08T12:13:42;8.73;;;5.63;;
37805;SDS011;25082;50.870;0.022;2023-09-08T12:16:18;6.93;;;5.35;;
37805;SDS011;25082;50.870;0.022;2023-09-08T12:18:44;6.88;;;4.88;;
37805;SDS011;25082;50.870;0.022;2023-09-08T12:21:10;10.30;;;4.88;;
37805;SDS011;25082;50.870;0.022;2023-09-08T12:23:46;7.82;;;5.05;;
37805;SDS011;25082;50.870;0.022;2023-09-08T12:26:14;7.85;;;5.30;;
37805;SDS011;25082;50.870;0.022;2023-09-08T12:28:41;5.85;;;4.90;;
37805;SDS011;25082;50.870;0.022;2023-09-08T12:31:08;8.20;;;6.03;;
37805;SDS011;25082;50.870;0.022;2023-09-08T12:33:35;7.72;;;5.15;;
37805;SDS011;25082;50.870;0.022;2023-09-08T12:36:09;10.63;;;4.93;;
37805;SDS011;25082;50.870;0.022;2023-09-08T12:38:39;7.78;;;5.15;;
37805;SDS011;25082;50.870;0.022;2023-09-08T12:41:06;10.70;;;6.05;;
37805;SDS011;25082;50.870;0.022;2023-09-08T12:43:31;11.27;;;5.20;;
37805;SDS011;25082;50.870;0.022;2023-09-08T12:45:57;9.20;;;5.97;;
37805;SDS011;25082;50.870;0.022;2023-09-08T12:48:23;9.40;;;6.40;;
37805;SDS011;25082;50.870;0.022;2023-09-08T12:50:49;8.80;;;5.68;;
37805;SDS011;25082;50.870;0.022;2023-09-08T12:53:15;7.53;;;5.30;;
37805;SDS011;25082;50.870;0.022;2023-09-08T12:55:45;7.35;;;5.57;;
37805;SDS011;25082;50.870;0.022;2023-09-08T12:58:11;6.45;;;5.57;;
37805;SDS011;25082;50.870;0.022;2023-09-08T13:00:36;7.60;;;5.75;;
37805;SDS011;25082;50.870;0.022;2023-09-08T13:03:02;8.43;;;5.75;;
37805;SDS011;25082;50.870;0.022;2023-09-08T13:05:28;8.52;;;5.63;;
37805;SDS011;25082;50.870;0.022;2023-09-08T13:07:54;12.35;;;6.40;;
37805;SDS011;25082;50.870;0.022;2023-09-08T13:10:20;7.55;;;5.32;;
37805;SDS011;25082;50.870;0.022;2023-09-08T13:12:45;6.45;;;5.28;;
37805;SDS011;25082;50.870;0.022;2023-09-08T13:15:13;11.25;;;5.88;;
37805;SDS011;25082;50.870;0.022;2023-09-08T13:17:39;6.15;;;5.50;;
37805;SDS011;25082;50.870;0.022;2023-09-08T13:20:05;10.93;;;5.88;;
37805;SDS011;25082;50.870;0.022;2023-09-08T13:22:32;10.95;;;5.22;;
37805;SDS011;25082;50.870;0.022;2023-09-08T13:24:57;8.48;;;5.07;;
37805;SDS011;25082;50.870;0.022;2023-09-08T13:27:23;9.35;;;5.68;;
37805;SDS011;25082;50.870;0.022;2023-09-08T13:29:49;11.35;;;6.00;;
37805;SDS011;25082;50.870;0.022;2023-09-08T13:32:15;7.50;;;4.95;;
37805;SDS011;25082;50.870;0.022;2023-09-08T13:34:41;7.82;;;5.45;;
37805;SDS011;25082;50.870;0.022;2023-09-08T13:37:08;7.38;;;5.40;;
37805;SDS011;25082;50.870;0.022;2023-09-08T13:39:34;6.70;;;4.75;;
37805;SDS011;25082;50.870;0.022;2023-09-08T13:42:00;8.45;;;5.20;;
37805;SDS011;25082;50.870;0.022;2023-09-08T13:44:27;7.47;;;5.35;;
37805;SDS011;25082;50.870;0.022;2023-09-08T13:46:53;5.57;;;4.72;;
37805;SDS011;25082;50.870;0.022;2023-09-08T13:49:19;7.32;;;5.35;;
37805;SDS011;25082;50.870;0.022;2023-09-08T13:51:46;9.75;;;4.97;;
37805;SDS011;25082;50.870;0.022;2023-09-08T13:54:12;7.07;;;5.57;;
37805;SDS011;25082;50.870;0.022;2023-09-08T13:56:38;6.05;;;4.70;;
37805;SDS011;25082;50.870;0.022;2023-09-08T13:59:05;6.50;;;4.88;;
37805;SDS011;25082;50.870;0.022;2023-09-08T14:01:32;11.15;;;5.47;;
37805;SDS011;25082;50.870;0.022;2023-09-08T14:04:02;6.53;;;5.05;;
37805;SDS011;25082;50.870;0.022;2023-09-08T14:06:28;6.63;;;5.25;;
37805;SDS011;25082;50.870;0.022;2023-09-08T14:08:54;7.20;;;5.40;;
37805;SDS011;25082;50.870;0.022;2023-09-08T14:11:23;6.57;;;5.40;;
37805;SDS011;25082;50.870;0.022;2023-09-08T14:13:49;6.63;;;5.15;;
37805;SDS011;25082;50.870;0.022;2023-09-08T14:16:15;6.97;;;4.88;;
37805;SDS011;25082;50.870;0.022;2023-09-08T14:18:42;7.07;;;4.65;;
37805;SDS011;25082;50.870;0.022;2023-09-08T14:21:08;8.63;;;4.97;;
37805;SDS011;25082;50.870;0.022;2023-09-08T14:23:34;8.48;;;5.45;;
37805;SDS011;25082;50.870;0.022;2023-09-08T14:25:59;6.38;;;4.93;;
37805;SDS011;25082;50.870;0.022;2023-09-08T14:28:25;6.30;;;4.85;;
37805;SDS011;25082;50.870;0.022;2023-09-08T14:30:52;5.85;;;4.57;;
37805;SDS011;25082;50.870;0.022;2023-09-08T14:33:18;5.97;;;4.60;;
37805;SDS011;25082;50.870;0.022;2023-09-08T14:35:44;7.07;;;5.13;;
37805;SDS011;25082;50.870;0.022;2023-09-08T14:40:42;6.18;;;4.80;;
37805;SDS011;25082;50.870;0.022;2023-09-08T14:43:08;6.03;;;4.50;;
37805;SDS011;25082;50.870;0.022;2023-09-08T14:45:34;7.57;;;5.22;;
37805;SDS011;25082;50.870;0.022;2023-09-08T14:47:59;6.65;;;4.75;;
37805;SDS011;25082;50.870;0.022;2023-09-08T14:50:25;6.00;;;4.90;;
37805;SDS011;25082;50.870;0.022;2023-09-08T14:52:51;6.60;;;5.03;;
37805;SDS011;25082;50.870;0.022;2023-09-08T14:55:16;4.95;;;4.43;;
37805;SDS011;25082;50.870;0.022;2023-09-08T14:57:42;5.28;;;4.30;;
37805;SDS011;25082;50.870;0.022;2023-09-08T15:00:08;5.80;;;4.72;;